Time;durP1;ratioP1;P1;durP2;ratioP2;P2;SDS_P1;SDS_P2;PMS_P1;PMS_P2;Temp;Humidity;BMP_temperature;BMP_pressure;BME280_temperature;BME280_humidity;BME280_pressure;Samples;Min_cycle;Max_cycle;Signal;HPM_P1;HPM_P2
2020/12/27 00:00:44;;;;;;;10.00;6.50;;;;;;;4.15;100.00;100496.53;4951025;28;20035;-65
2020/12/27 00:03:09;;;;;;;13.25;7.30;;;;;;;4.11;100.00;100482.69;4950364;28;20111;-65
2020/12/27 00:05:35;;;;;;;13.27;7.18;;;;;;;4.11;100.00;100492.47;4948193;28;20178;-65
2020/12/27 00:08:00;;;;;;;14.32;6.95;;;;;;;4.14;100.00;100485.09;4950284;28;20110;-65
2020/12/27 00:10:26;;;;;;;14.57;7.50;;;;;;;4.13;100.00;100461.34;4949528;28;20102;-64
2020/12/27 00:12:52;;;;;;;13.63;7.25;;;;;;;4.13;100.00;100454.22;4950250;28;20027;-65
2020/12/27 00:15:17;;;;;;;12.30;7.38;;;;;;;4.15;100.00;100443.44;4955052;28;20059;-64
2020/12/27 00:17:43;;;;;;;13.38;6.72;;;;;;;4.13;100.00;100448.06;4957154;28;20027;-65
2020/12/27 00:20:10;;;;;;;10.27;6.50;;;;;;;4.11;100.00;100434.06;4957204;28;20039;-65
2020/12/27 00:22:35;;;;;;;15.98;6.65;;;;;;;4.07;100.00;100417.59;4956429;28;20102;-65
2020/12/27 00:25:01;;;;;;;11.80;6.75;;;;;;;4.14;100.00;100432.00;4956946;28;20373;-65
2020/12/27 00:27:26;;;;;;;13.10;6.80;;;;;;;4.14;100.00;100416.06;4956601;28;20031;-65
2020/12/27 00:29:52;;;;;;;12.75;6.65;;;;;;;4.16;100.00;100399.97;4956380;28;20050;-65
2020/12/27 00:32:18;;;;;;;11.88;5.80;;;;;;;4.19;100.00;100385.63;4951528;28;20175;-65
2020/12/27 00:34:43;;;;;;;13.95;7.07;;;;;;;4.09;100.00;100369.66;4957115;28;20035;-65
2020/12/27 00:37:09;;;;;;;10.35;5.70;;;;;;;4.01;100.00;100329.69;4956399;28;20094;-65
2020/12/27 00:39:34;;;;;;;14.38;6.75;;;;;;;4.04;100.00;100305.53;4956640;28;20034;-65
2020/12/27 00:42:02;;;;;;;10.05;5.80;;;;;;;4.02;100.00;100304.84;4956821;28;20039;-65
2020/12/27 00:44:28;;;;;;;11.50;6.63;;;;;;;4.01;100.00;100321.72;4957622;28;20542;-65
2020/12/27 00:46:54;;;;;;;17.13;6.60;;;;;;;4.10;100.00;100321.72;4956772;28;20031;-65
2020/12/27 00:49:20;;;;;;;10.27;5.55;;;;;;;4.11;100.00;100304.81;4957363;28;20058;-65
2020/12/27 00:51:46;;;;;;;14.32;6.50;;;;;;;4.11;100.00;100299.50;4956924;28;20035;-65
2020/12/27 00:54:12;;;;;;;10.50;5.80;;;;;;;4.09;100.00;100287.38;4956802;28;20098;-65
2020/12/27 00:56:38;;;;;;;10.00;5.25;;;;;;;4.10;100.00;100281.06;4956649;28;20046;-65
2020/12/27 00:59:04;;;;;;;12.35;5.65;;;;;;;4.14;100.00;100245.31;4956883;28;20031;-65
2020/12/27 01:01:30;;;;;;;9.57;5.35;;;;;;;4.08;100.00;100240.56;4957003;28;20082;-64
2020/12/27 01:03:55;;;;;;;11.65;5.75;;;;;;;4.08;100.00;100224.63;4956652;28;20066;-65
2020/12/27 01:06:22;;;;;;;10.57;5.65;;;;;;;4.05;100.00;100219.59;4956166;28;20034;-65
2020/12/27 01:08:48;;;;;;;10.85;5.25;;;;;;;4.08;100.00;100203.41;4956379;28;20492;-65
2020/12/27 01:11:13;;;;;;;11.25;6.15;;;;;;;4.12;100.00;100189.72;4956690;28;20037;-65
2020/12/27 01:13:39;;;;;;;11.23;5.28;;;;;;;4.06;100.00;100179.63;4956633;28;20070;-65
2020/12/27 01:16:09;;;;;;;11.00;5.32;;;;;;;4.08;100.00;100179.50;4956827;28;20122;-65
2020/12/27 01:18:35;;;;;;;9.38;4.95;;;;;;;4.09;100.00;100160.78;4956183;28;20031;-65
2020/12/27 01:21:00;;;;;;;11.32;5.65;;;;;;;4.16;100.00;100174.31;4956546;28;20090;-66
2020/12/27 01:23:26;;;;;;;8.35;4.97;;;;;;;4.15;100.00;100154.91;4956262;28;20118;-65
2020/12/27 01:25:51;;;;;;;9.20;5.25;;;;;;;4.10;100.00;100135.06;4955297;28;20464;-65
2020/12/27 01:28:17;;;;;;;11.88;4.90;;;;;;;4.14;100.00;100145.28;4952579;28;20618;-65
2020/12/27 01:30:44;;;;;;;8.30;4.93;;;;;;;4.11;100.00;100150.00;4953586;28;20027;-65
2020/12/27 01:33:09;;;;;;;10.02;5.30;;;;;;;4.10;100.00;100149.19;4952496;28;20118;-64
2020/12/27 01:35:35;;;;;;;9.43;4.50;;;;;;;4.18;100.00;100127.25;4952881;28;20181;-65
2020/12/27 01:38:01;;;;;;;6.78;3.75;;;;;;;4.19;100.00;100110.34;4952235;29;20123;-65
2020/12/27 01:40:26;;;;;;;7.45;4.35;;;;;;;4.16;100.00;100099.97;4953104;29;20035;-65
2020/12/27 01:42:54;;;;;;;9.13;5.45;;;;;;;4.09;100.00;100080.31;4953378;28;20031;-65
2020/12/27 01:45:20;;;;;;;8.35;4.25;;;;;;;4.22;100.00;100087.94;4953656;28;20028;-65
2020/12/27 01:47:49;;;;;;;7.60;4.50;;;;;;;4.21;100.00;100089.78;4953222;28;20495;-65
2020/12/27 01:50:15;;;;;;;11.40;4.43;;;;;;;4.22;100.00;100075.53;4953258;28;20502;-65
2020/12/27 01:52:40;;;;;;;8.15;3.97;;;;;;;4.24;100.00;100048.84;4953606;28;20126;-65
2020/12/27 01:55:06;;;;;;;8.35;4.07;;;;;;;4.22;100.00;100072.88;4953655;28;20046;-65
2020/12/27 01:58:04;;;;;;;10.13;3.97;;;;;;;4.21;100.00;100065.03;4953202;28;20031;-64
2020/12/27 02:00:29;;;;;;;7.47;3.83;;;;;;;4.17;100.00;100053.91;4952617;28;20035;-66
2020/12/27 02:02:55;;;;;;;7.57;4.00;;;;;;;4.22;100.00;100051.66;4952598;28;20039;-65
2020/12/27 02:05:21;;;;;;;8.13;3.85;;;;;;;4.20;100.00;100036.81;4953784;28;20027;-65
2020/12/27 02:07:49;;;;;;;7.38;3.65;;;;;;;4.28;100.00;100016.53;4952737;28;20031;-65
2020/12/27 02:10:15;;;;;;;7.90;3.50;;;;;;;4.24;100.00;100012.50;4953329;28;20037;-65
2020/12/27 02:12:41;;;;;;;5.97;3.60;;;;;;;4.24;100.00;100003.69;4953086;28;20558;-65
2020/12/27 02:15:07;;;;;;;6.32;3.75;;;;;;;4.20;100.00;99976.59;4953633;28;20035;-65
2020/12/27 02:17:33;;;;;;;5.88;3.67;;;;;;;4.24;100.00;99964.72;4952139;28;20122;-65
2020/12/27 02:19:58;;;;;;;9.05;3.70;;;;;;;4.27;100.00;99961.78;4952948;28;20038;-64
2020/12/27 02:22:24;;;;;;;5.47;3.47;;;;;;;4.28;100.00;99949.31;4951847;28;20035;-65
2020/12/27 02:24:50;;;;;;;5.32;3.10;;;;;;;4.33;100.00;99947.91;4952249;28;20118;-65
2020/12/27 02:27:15;;;;;;;7.53;3.35;;;;;;;4.30;100.00;99942.03;4952312;28;20059;-65
2020/12/27 02:29:41;;;;;;;6.75;3.70;;;;;;;4.26;100.00;99925.56;4952748;28;20404;-65
2020/12/27 02:32:06;;;;;;;6.95;3.53;;;;;;;4.31;100.00;99925.13;4952599;28;20473;-65
2020/12/27 02:34:32;;;;;;;7.00;3.85;;;;;;;4.31;100.00;99888.78;4952389;28;20035;-65
2020/12/27 02:36:57;;;;;;;7.55;3.10;;;;;;;4.31;100.00;99907.38;4951693;28;20105;-65
2020/12/27 02:39:24;;;;;;;5.57;2.80;;;;;;;4.38;100.00;99871.28;4951548;28;20039;-65
2020/12/27 02:41:51;;;;;;;8.18;3.42;;;;;;;4.34;100.00;99877.03;4951554;28;20031;-65
2020/12/27 02:44:18;;;;;;;5.93;3.67;;;;;;;4.32;100.00;99890.47;4951186;28;20524;-65
2020/12/27 02:46:44;;;;;;;8.15;3.38;;;;;;;4.36;100.00;99864.44;4951599;28;20035;-64
2020/12/27 02:49:11;;;;;;;5.85;3.00;;;;;;;4.29;100.00;99850.94;4952110;28;20023;-65
2020/12/27 02:51:37;;;;;;;7.70;3.40;;;;;;;4.32;100.00;99847.16;4951847;28;20058;-64
2020/12/27 02:54:03;;;;;;;4.97;3.00;;;;;;;4.35;100.00;99833.56;4952443;28;20043;-65
2020/12/27 02:56:30;;;;;;;6.15;3.30;;;;;;;4.31;100.00;99813.59;4951706;28;20047;-65
2020/12/27 02:58:58;;;;;;;6.88;3.10;;;;;;;4.28;100.00;99780.22;4952227;28;20035;-66
2020/12/27 03:01:24;;;;;;;4.70;2.90;;;;;;;4.28;100.00;99777.56;4952187;28;20027;-65
2020/12/27 03:03:50;;;;;;;11.55;3.55;;;;;;;4.23;100.00;99769.22;4952120;28;20400;-65
2020/12/27 03:06:18;;;;;;;5.05;3.08;;;;;;;4.26;100.00;99781.34;4951457;28;20308;-64
2020/12/27 03:08:45;;;;;;;4.63;2.67;;;;;;;4.23;100.00;99755.97;4949584;28;20110;-65
2020/12/27 03:11:11;;;;;;;6.45;3.00;;;;;;;4.22;100.00;99737.50;4950295;28;20623;-65
2020/12/27 03:13:37;;;;;;;6.78;2.83;;;;;;;4.23;100.00;99747.16;4951791;28;20043;-65
2020/12/27 03:16:08;;;;;;;3.60;2.33;;;;;;;4.23;100.00;99725.94;4951611;28;20428;-65
2020/12/27 03:18:34;;;;;;;8.27;3.10;;;;;;;4.30;100.00;99753.53;4951691;28;20082;-65
2020/12/27 03:21:00;;;;;;;5.25;2.70;;;;;;;4.37;100.00;99722.72;4951782;28;20081;-65
2020/12/27 03:23:26;;;;;;;3.92;2.53;;;;;;;4.40;100.00;99720.56;4951635;28;20127;-65
2020/12/27 03:25:51;;;;;;;5.13;2.00;;;;;;;4.40;100.00;99717.91;4950988;28;20122;-65
2020/12/27 03:28:17;;;;;;;4.55;2.40;;;;;;;4.40;100.00;99695.84;4951425;28;20078;-65
2020/12/27 03:30:43;;;;;;;2.65;1.90;;;;;;;4.41;100.00;99668.28;4949389;28;20035;-65
2020/12/27 03:33:09;;;;;;;3.58;2.00;;;;;;;4.38;100.00;99648.22;4941787;29;20428;-66
2020/12/27 03:35:35;;;;;;;3.15;1.83;;;;;;;4.39;100.00;99651.69;4951016;28;20038;-65
2020/12/27 03:38:01;;;;;;;2.95;2.33;;;;;;;4.47;100.00;99635.84;4950820;28;20401;-65
2020/12/27 03:40:26;;;;;;;4.75;2.13;;;;;;;4.51;100.00;99620.38;4951669;28;20067;-65
2020/12/27 03:42:52;;;;;;;2.80;1.52;;;;;;;4.49;100.00;99633.84;4951390;28;20039;-65
2020/12/27 03:45:18;;;;;;;3.08;1.90;;;;;;;4.57;100.00;99625.09;4950144;29;20035;-65
2020/12/27 03:47:43;;;;;;;2.78;1.40;;;;;;;4.62;100.00;99623.63;4950974;28;20027;-65
2020/12/27 03:50:09;;;;;;;3.67;1.83;;;;;;;4.58;100.00;99611.66;4950964;28;20093;-65
2020/12/27 03:52:34;;;;;;;2.33;1.48;;;;;;;4.56;100.00;99604.81;4966527;28;20403;-65
2020/12/27 03:55:00;;;;;;;2.30;1.20;;;;;;;4.60;100.00;99591.06;4951465;28;20039;-65
2020/12/27 03:57:26;;;;;;;2.72;1.40;;;;;;;4.66;100.00;99603.72;4950269;28;20761;-65
2020/12/27 03:59:51;;;;;;;2.70;1.27;;;;;;;4.67;100.00;99586.81;4951264;28;20507;-65
2020/12/27 04:02:17;;;;;;;2.00;0.98;;;;;;;4.69;100.00;99570.69;4951461;29;20512;-65
2020/12/27 04:04:43;;;;;;;3.25;1.13;;;;;;;4.73;100.00;99572.03;4951182;28;20070;-65
2020/12/27 04:07:09;;;;;;;2.25;0.90;;;;;;;4.67;100.00;99556.75;4950792;28;20042;-65
2020/12/27 04:09:35;;;;;;;3.00;1.00;;;;;;;4.72;100.00;99566.88;4951172;28;20058;-65
2020/12/27 04:12:00;;;;;;;1.42;0.88;;;;;;;4.70;100.00;99545.78;4950423;28;20526;-65
2020/12/27 04:14:27;;;;;;;1.75;0.75;;;;;;;4.69;100.00;99528.19;4950980;28;20035;-65
2020/12/27 04:16:53;;;;;;;1.30;0.80;;;;;;;4.56;100.00;99533.94;4950486;28;20042;-65
2020/12/27 04:19:19;;;;;;;3.08;1.00;;;;;;;4.63;100.00;99515.56;4951168;28;20073;-65
2020/12/27 04:21:45;;;;;;;3.05;1.20;;;;;;;4.60;100.00;99492.78;4950871;28;20042;-65
2020/12/27 04:24:11;;;;;;;3.00;0.90;;;;;;;4.57;100.00;99516.19;4949877;28;20512;-65
2020/12/27 04:26:38;;;;;;;1.08;0.60;;;;;;;4.55;100.00;99507.53;4950081;28;20069;-65
2020/12/27 04:29:04;;;;;;;3.08;0.75;;;;;;;4.56;100.00;99501.22;4951319;28;20030;-65
2020/12/27 04:31:30;;;;;;;1.60;0.80;;;;;;;4.43;100.00;99499.03;4942630;28;20082;-65
2020/12/27 04:33:57;;;;;;;2.33;0.80;;;;;;;4.51;100.00;99483.13;4946861;29;20031;-65
2020/12/27 04:36:24;;;;;;;0.85;0.65;;;;;;;4.43;100.00;99496.38;4950218;28;20126;-65
2020/12/27 04:38:50;;;;;;;1.13;0.73;;;;;;;4.45;100.00;99477.63;4950741;28;20031;-64
2020/12/27 04:41:18;;;;;;;2.15;0.90;;;;;;;4.40;100.00;99475.44;4959597;28;20031;-65
2020/12/27 04:43:45;;;;;;;1.40;0.90;;;;;;;4.29;100.00;99465.13;4954503;28;20416;-65
2020/12/27 04:46:13;;;;;;;2.08;1.08;;;;;;;4.33;100.00;99464.63;4949520;28;20031;-65
2020/12/27 04:48:41;;;;;;;1.45;1.05;;;;;;;4.25;100.00;99442.53;4949345;28;20565;-65
2020/12/27 04:51:08;;;;;;;2.78;1.00;;;;;;;4.15;100.00;99434.69;4949688;28;20039;-65
2020/12/27 04:53:35;;;;;;;1.27;0.77;;;;;;;4.07;100.00;99418.75;4949156;28;20122;-65
2020/12/27 04:56:02;;;;;;;1.40;0.70;;;;;;;4.12;100.00;99413.78;4951009;28;20118;-65
2020/12/27 04:58:28;;;;;;;1.50;0.60;;;;;;;4.14;100.00;99390.56;4950416;28;20037;-65
2020/12/27 05:00:55;;;;;;;1.20;0.60;;;;;;;4.08;100.00;99391.22;4951006;28;20027;-65
2020/12/27 05:03:21;;;;;;;1.45;0.60;;;;;;;4.06;100.00;99385.22;4953648;28;20031;-65
2020/12/27 05:05:51;;;;;;;1.40;0.50;;;;;;;4.01;100.00;99360.97;4954248;28;20039;-65
2020/12/27 05:08:17;;;;;;;0.60;0.52;;;;;;;3.99;100.00;99355.84;4952704;28;20314;-65
2020/12/27 05:10:44;;;;;;;1.40;0.60;;;;;;;4.01;100.00;99334.44;4954343;28;20040;-65
2020/12/27 05:13:12;;;;;;;1.45;0.60;;;;;;;3.95;100.00;99321.81;4953431;28;20031;-65
2020/12/27 05:15:39;;;;;;;1.33;0.80;;;;;;;3.94;100.00;99317.50;4954482;28;20046;-65
2020/12/27 05:18:08;;;;;;;1.13;0.47;;;;;;;3.90;100.00;99295.78;4953077;28;20448;-65
2020/12/27 05:20:34;;;;;;;2.13;1.55;;;;;;;3.86;100.00;99303.22;4954366;28;20031;-65
2020/12/27 05:23:03;;;;;;;2.00;0.40;;;;;;;3.93;100.00;99302.59;4953221;28;20055;-65
2020/12/27 05:25:30;;;;;;;3.28;0.60;;;;;;;3.95;100.00;99258.16;4954290;29;20419;-65
2020/12/27 05:28:01;;;;;;;1.48;0.70;;;;;;;3.82;100.00;99274.53;4953181;28;20035;-65
2020/12/27 05:30:27;;;;;;;0.70;0.40;;;;;;;3.86;100.00;99265.25;4953239;28;20041;-65
2020/12/27 05:32:54;;;;;;;1.25;0.32;;;;;;;3.78;100.00;99241.38;4941171;29;20035;-65
2020/12/27 05:35:20;;;;;;;1.02;0.70;;;;;;;3.82;100.00;99235.56;4953412;28;20031;-65
2020/12/27 05:37:49;;;;;;;1.35;0.50;;;;;;;3.86;100.00;99212.19;4953480;28;20046;-65
2020/12/27 05:40:15;;;;;;;2.15;0.57;;;;;;;3.87;100.00;99227.97;4953599;28;20076;-66
2020/12/27 05:42:43;;;;;;;1.77;0.68;;;;;;;3.91;100.00;99209.88;4953900;28;20050;-66
2020/12/27 05:45:17;;;;;;;0.45;0.30;;;;;;;3.85;100.00;99190.13;4953310;28;20027;-65
2020/12/27 05:47:44;;;;;;;5.45;0.60;;;;;;;3.80;100.00;99181.84;4952823;28;20027;-66
2020/12/27 05:50:12;;;;;;;0.95;0.50;;;;;;;3.78;100.00;99180.34;4952696;28;20035;-66
2020/12/27 05:52:45;;;;;;;1.10;0.70;;;;;;;3.80;100.00;99144.69;4952796;28;20031;-66
2020/12/27 05:55:16;;;;;;;4.32;0.60;;;;;;;3.89;100.00;99148.19;4953552;28;20484;-66
2020/12/27 05:57:42;;;;;;;1.10;0.50;;;;;;;3.95;100.00;99152.00;4952770;28;20102;-66
2020/12/27 06:00:10;;;;;;;1.38;0.50;;;;;;;3.92;100.00;99139.09;4953313;28;20031;-65
2020/12/27 06:02:42;;;;;;;0.50;0.40;;;;;;;3.96;100.00;99116.53;4967901;28;20063;-66
2020/12/27 06:05:10;;;;;;;2.15;0.60;;;;;;;4.02;100.00;99121.19;4953360;28;20086;-66
2020/12/27 06:07:39;;;;;;;0.57;0.40;;;;;;;3.96;100.00;99104.09;4952358;28;20627;-66
2020/12/27 06:10:18;;;;;;;0.40;0.40;;;;;;;3.93;100.00;99095.66;4951189;29;20069;-66
2020/12/27 06:12:56;;;;;;;1.95;0.45;;;;;;;3.96;100.00;99100.59;4952539;28;20051;-67
2020/12/27 06:15:25;;;;;;;2.70;0.60;;;;;;;3.97;100.00;99091.66;4953572;28;20064;-66
2020/12/27 06:17:50;;;;;;;3.72;0.50;;;;;;;3.90;100.00;99081.69;4952630;28;20082;-65
2020/12/27 06:20:19;;;;;;;2.47;0.60;;;;;;;3.95;100.00;99062.63;4953577;28;20046;-67
2020/12/27 06:22:48;;;;;;;0.80;0.60;;;;;;;3.92;100.00;99049.72;4953013;28;20275;-67
2020/12/27 06:25:14;;;;;;;0.65;0.60;;;;;;;3.96;100.00;99047.53;4952760;28;20031;-67
2020/12/27 06:27:40;;;;;;;0.50;0.40;;;;;;;3.97;100.00;99031.47;4952580;28;20031;-66
2020/12/27 06:30:09;;;;;;;0.80;0.52;;;;;;;4.03;100.00;99022.00;4953126;28;20089;-66
2020/12/27 06:32:41;;;;;;;0.68;0.50;;;;;;;4.06;100.00;99003.06;4940026;28;20035;-67
2020/12/27 06:35:08;;;;;;;1.15;0.50;;;;;;;4.00;100.00;98991.31;4952742;28;20034;-67
2020/12/27 06:37:44;;;;;;;1.10;0.50;;;;;;;4.07;100.00;98994.13;4952740;28;20122;-67
2020/12/27 06:40:11;;;;;;;1.08;0.30;;;;;;;4.06;100.00;98989.81;4952072;28;20495;-67
2020/12/27 06:42:37;;;;;;;1.00;0.30;;;;;;;4.05;100.00;98975.72;4953058;28;20055;-66
2020/12/27 06:45:06;;;;;;;0.20;0.20;;;;;;;4.09;100.00;98978.88;4952586;28;20400;-67
2020/12/27 06:47:51;;;;;;;0.82;0.47;;;;;;;4.01;100.00;98963.78;4952852;28;20101;-67
2020/12/27 06:50:19;;;;;;;2.05;0.28;;;;;;;4.03;100.00;98950.34;4934657;28;20065;-67
2020/12/27 06:52:45;;;;;;;2.08;0.30;;;;;;;4.05;100.00;98946.53;4950776;28;20504;-67
2020/12/27 06:55:12;;;;;;;1.05;0.20;;;;;;;4.05;100.00;98935.09;4950960;28;20042;-66
2020/12/27 06:57:46;;;;;;;0.30;0.10;;;;;;;4.03;100.00;98926.47;4950743;29;20039;-66
2020/12/27 07:00:24;;;;;;;0.35;0.25;;;;;;;3.99;100.00;98903.94;4951030;28;20063;-66
2020/12/27 07:03:11;;;;;;;1.35;0.20;;;;;;;4.05;100.00;98888.16;4950461;28;20432;-66
2020/12/27 07:05:39;;;;;;;2.45;0.45;;;;;;;3.98;100.00;98900.47;4951093;28;20035;-67
2020/12/27 07:08:06;;;;;;;0.35;0.28;;;;;;;3.96;100.00;98898.97;4950264;28;20501;-66
2020/12/27 07:10:35;;;;;;;0.20;0.20;;;;;;;3.94;100.00;98895.66;4950862;28;20039;-67
2020/12/27 07:13:10;;;;;;;0.40;0.40;;;;;;;4.06;100.00;98870.41;4950527;28;20081;-66
2020/12/27 07:15:45;;;;;;;0.85;0.65;;;;;;;3.97;100.00;98859.00;4950438;28;20039;-66
2020/12/27 07:18:10;;;;;;;0.22;0.20;;;;;;;3.92;100.00;98855.22;4950086;28;20547;-66
2020/12/27 07:20:38;;;;;;;0.52;0.30;;;;;;;3.87;100.00;98845.94;4950772;28;20114;-65
2020/12/27 07:23:12;;;;;;;0.45;0.30;;;;;;;3.90;100.00;98852.72;4950434;28;20042;-66
2020/12/27 07:25:41;;;;;;;0.47;0.22;;;;;;;3.89;100.00;98843.94;4949616;28;20031;-66
2020/12/27 07:28:08;;;;;;;0.50;0.30;;;;;;;3.80;100.00;98810.47;4950119;28;20039;-66
2020/12/27 07:30:34;;;;;;;2.08;0.47;;;;;;;3.73;100.00;98801.56;4949285;28;20082;-67
2020/12/27 07:33:06;;;;;;;0.50;0.20;;;;;;;3.74;100.00;98799.75;4938617;29;20118;-66
2020/12/27 07:35:34;;;;;;;0.15;0.13;;;;;;;3.73;100.00;98793.63;4950007;28;20031;-67
2020/12/27 07:38:01;;;;;;;0.50;0.20;;;;;;;3.64;100.00;98766.31;4949990;28;20031;-66
2020/12/27 07:40:33;;;;;;;1.15;0.40;;;;;;;3.67;100.00;98761.66;4949680;28;20039;-67
2020/12/27 07:43:01;;;;;;;2.00;0.32;;;;;;;3.75;100.00;98764.25;4950491;28;20027;-67
2020/12/27 07:45:27;;;;;;;1.35;0.63;;;;;;;3.80;100.00;98753.97;4949970;28;20039;-67
2020/12/27 07:47:53;;;;;;;0.38;0.38;;;;;;;3.75;100.00;98738.56;4949763;28;20038;-66
2020/12/27 07:50:19;;;;;;;0.30;0.22;;;;;;;3.68;100.00;98711.09;4950075;28;20035;-67
2020/12/27 07:52:48;;;;;;;0.60;0.45;;;;;;;3.68;100.00;98707.63;4950068;28;20035;-67
2020/12/27 07:55:21;;;;;;;1.05;0.30;;;;;;;3.72;100.00;98723.03;4949711;28;20035;-67
2020/12/27 07:57:47;;;;;;;1.73;0.38;;;;;;;3.77;100.00;98699.44;4949232;28;20507;-67
2020/12/27 08:00:13;;;;;;;0.55;0.40;;;;;;;3.75;100.00;98680.22;4949967;28;20023;-67
2020/12/27 08:02:42;;;;;;;0.93;0.50;;;;;;;3.77;100.00;98675.59;4949796;28;20531;-67
2020/12/27 08:05:11;;;;;;;1.50;0.40;;;;;;;3.89;100.00;98682.13;4949341;28;20034;-66
2020/12/27 08:07:37;;;;;;;0.55;0.30;;;;;;;3.94;100.00;98672.81;4949258;28;20390;-66
2020/12/27 08:10:20;;;;;;;1.40;0.65;;;;;;;3.87;100.00;98673.53;4949750;28;20449;-66
2020/12/27 08:12:54;;;;;;;0.60;0.50;;;;;;;3.87;100.00;98670.06;4949751;28;20043;-65
2020/12/27 08:15:20;;;;;;;1.92;0.70;;;;;;;3.89;100.00;98647.63;4949412;28;20119;-66
2020/12/27 08:17:54;;;;;;;2.00;0.60;;;;;;;3.86;100.00;98650.63;4948596;28;20048;-66
2020/12/27 08:20:20;;;;;;;2.05;0.60;;;;;;;3.90;100.00;98637.84;4949943;28;20447;-65
2020/12/27 08:22:57;;;;;;;2.53;0.80;;;;;;;3.94;100.00;98635.69;4949852;28;20035;-66
2020/12/27 08:25:23;;;;;;;1.40;0.80;;;;;;;3.95;100.00;98616.91;4949374;28;20125;-66
2020/12/27 08:27:56;;;;;;;1.38;1.05;;;;;;;3.96;100.00;98601.81;4948838;28;20460;-66
2020/12/27 08:30:24;;;;;;;0.60;0.60;;;;;;;3.99;100.00;98582.91;4948927;28;20496;-66
2020/12/27 08:33:09;;;;;;;0.65;0.55;;;;;;;4.01;100.00;98589.66;4937592;28;20031;-66
2020/12/27 08:35:35;;;;;;;1.75;0.40;;;;;;;4.02;100.00;98582.56;4951677;28;20035;-66
2020/12/27 08:38:19;;;;;;;0.70;0.50;;;;;;;4.06;100.00;98566.06;4954299;28;20043;-66
2020/12/27 08:40:47;;;;;;;0.80;0.65;;;;;;;4.15;100.00;98543.75;4953277;29;20473;-65
2020/12/27 08:43:29;;;;;;;1.95;0.50;;;;;;;4.14;100.00;98531.50;4954109;28;20110;-66
2020/12/27 08:45:56;;;;;;;0.57;0.55;;;;;;;4.18;100.00;98534.63;4953637;28;20507;-66
2020/12/27 08:48:31;;;;;;;0.50;0.35;;;;;;;4.25;100.00;98537.38;4952897;28;20066;-66
2020/12/27 08:51:00;;;;;;;1.13;0.60;;;;;;;4.25;100.00;98508.19;4953106;28;20090;-66
2020/12/27 08:53:26;;;;;;;0.63;0.50;;;;;;;4.25;100.00;98513.47;4952690;28;20047;-66
2020/12/27 08:55:52;;;;;;;1.00;0.40;;;;;;;4.29;100.00;98485.56;4953121;28;20093;-66
2020/12/27 08:58:17;;;;;;;1.00;0.85;;;;;;;4.33;100.00;98505.44;4952487;28;20373;-66
2020/12/27 09:00:47;;;;;;;0.60;0.40;;;;;;;4.34;100.00;98507.09;4953268;28;20495;-65
2020/12/27 09:03:13;;;;;;;1.30;0.52;;;;;;;4.37;100.00;98483.66;4953093;28;20064;-66
2020/12/27 09:05:39;;;;;;;1.00;0.70;;;;;;;4.40;100.00;98485.09;4952784;28;20063;-66
2020/12/27 09:08:16;;;;;;;0.73;0.50;;;;;;;4.46;100.00;98507.44;4951946;28;20043;-66
2020/12/27 09:10:42;;;;;;;0.95;0.50;;;;;;;4.49;100.00;98477.88;4952943;28;20065;-66
2020/12/27 09:13:10;;;;;;;2.08;0.60;;;;;;;4.47;100.00;98463.94;4952621;28;20066;-65
2020/12/27 09:15:43;;;;;;;1.73;0.52;;;;;;;4.50;100.00;98445.00;4952837;28;20038;-66
2020/12/27 09:18:10;;;;;;;3.22;0.57;;;;;;;4.47;100.00;98434.75;4951459;28;20034;-66
2020/12/27 09:20:38;;;;;;;0.80;0.52;;;;;;;4.41;100.00;98433.66;4952898;28;20530;-66
2020/12/27 09:23:14;;;;;;;2.38;0.90;;;;;;;4.60;100.00;98389.75;4952107;28;20027;-66
2020/12/27 09:25:41;;;;;;;0.38;0.38;;;;;;;4.49;100.00;98395.56;4952421;28;20353;-66
2020/12/27 09:28:15;;;;;;;0.73;0.50;;;;;;;4.45;100.00;98394.28;4951569;28;20491;-66
2020/12/27 09:30:42;;;;;;;4.10;0.80;;;;;;;4.44;100.00;98382.03;4950227;28;20115;-66
2020/12/27 09:33:08;;;;;;;1.25;0.55;;;;;;;4.44;100.00;98374.88;4941666;29;20027;-66
2020/12/27 09:35:34;;;;;;;1.40;0.68;;;;;;;4.48;100.00;98362.88;4952204;28;20518;-65
2020/12/27 09:37:59;;;;;;;0.95;0.50;;;;;;;4.48;100.00;98367.38;4951324;28;20031;-65
2020/12/27 09:40:25;;;;;;;0.98;0.57;;;;;;;4.51;100.00;98359.03;4952086;29;20510;-65
2020/12/27 09:43:01;;;;;;;1.02;0.60;;;;;;;4.43;100.00;98365.28;4967063;28;20512;-65
2020/12/27 09:45:26;;;;;;;1.85;0.68;;;;;;;4.39;100.00;98361.34;4951806;28;20038;-65
2020/12/27 09:48:01;;;;;;;2.17;0.43;;;;;;;4.38;100.00;98315.41;4950549;28;20027;-65
2020/12/27 09:50:33;;;;;;;1.25;0.50;;;;;;;4.38;100.00;98331.34;4951990;28;20106;-65
2020/12/27 09:52:59;;;;;;;0.80;0.50;;;;;;;4.35;100.00;98337.00;4952099;28;20037;-64
2020/12/27 09:55:25;;;;;;;2.42;0.60;;;;;;;4.35;100.00;98318.41;4952235;28;20123;-65
2020/12/27 09:57:51;;;;;;;0.80;0.77;;;;;;;4.29;100.00;98326.31;4950870;28;20118;-65
2020/12/27 10:00:16;;;;;;;1.50;0.60;;;;;;;4.34;100.00;98318.63;4951811;28;20053;-65
2020/12/27 10:02:42;;;;;;;1.83;0.38;;;;;;;4.30;100.00;98304.91;4952430;28;20033;-65
2020/12/27 10:05:08;;;;;;;1.70;0.73;;;;;;;4.28;100.00;98301.63;4951861;28;20039;-65
2020/12/27 10:07:34;;;;;;;0.70;0.68;;;;;;;4.24;100.00;98297.69;4951044;28;20031;-65
2020/12/27 10:10:00;;;;;;;1.15;0.70;;;;;;;4.20;100.00;98285.81;4951730;28;20039;-65
2020/12/27 10:12:25;;;;;;;1.42;0.50;;;;;;;4.26;100.00;98285.03;4951231;28;20035;-65
2020/12/27 10:14:51;;;;;;;2.80;0.50;;;;;;;4.25;100.00;98283.41;4951690;28;20035;-65
2020/12/27 10:17:17;;;;;;;0.95;0.50;;;;;;;4.27;100.00;98270.78;4950788;28;20119;-64
2020/12/27 10:19:43;;;;;;;2.55;0.55;;;;;;;4.26;100.00;98261.16;4951466;28;20626;-65
2020/12/27 10:22:09;;;;;;;1.45;0.60;;;;;;;4.34;100.00;98245.13;4951501;28;20031;-64
2020/12/27 10:24:35;;;;;;;1.23;0.70;;;;;;;4.33;100.00;98251.44;4950973;28;20082;-65
2020/12/27 10:27:04;;;;;;;2.15;0.57;;;;;;;4.26;100.00;98224.00;4950698;28;20070;-66
2020/12/27 10:29:29;;;;;;;1.15;0.52;;;;;;;4.30;100.00;98229.75;4951581;28;20039;-66
2020/12/27 10:31:58;;;;;;;0.75;0.40;;;;;;;4.34;100.00;98207.97;4951774;28;20035;-65
2020/12/27 10:34:24;;;;;;;1.27;0.80;;;;;;;4.37;100.00;98214.72;4951424;28;20399;-65
2020/12/27 10:36:51;;;;;;;0.30;0.30;;;;;;;4.34;100.00;98200.00;4950171;28;20335;-65
2020/12/27 10:39:18;;;;;;;1.60;0.50;;;;;;;4.31;100.00;98184.44;4951282;28;20051;-65
2020/12/27 10:41:45;;;;;;;0.82;0.50;;;;;;;4.33;100.00;98185.09;4950595;28;20087;-65
2020/12/27 10:44:10;;;;;;;1.30;0.40;;;;;;;4.37;100.00;98169.59;4951009;28;20035;-65
2020/12/27 10:46:36;;;;;;;0.57;0.40;;;;;;;4.48;100.00;98165.59;4950292;28;20042;-65
2020/12/27 10:49:02;;;;;;;0.30;0.30;;;;;;;4.46;100.00;98159.66;4950604;28;20469;-65
2020/12/27 10:51:36;;;;;;;0.22;0.20;;;;;;;4.41;100.00;98144.28;4951124;28;20422;-65
2020/12/27 10:54:03;;;;;;;0.43;0.30;;;;;;;4.43;100.00;98142.28;4938393;29;20023;-65
2020/12/27 10:56:28;;;;;;;0.30;0.30;;;;;;;4.45;100.00;98134.94;4949663;28;20067;-65
2020/12/27 10:58:54;;;;;;;1.52;0.40;;;;;;;4.44;100.00;98122.69;4950699;28;20089;-65
2020/12/27 11:01:21;;;;;;;2.10;0.40;;;;;;;4.41;100.00;98126.53;4950801;28;20625;-65
2020/12/27 11:03:46;;;;;;;0.30;0.30;;;;;;;4.41;100.00;98110.59;4950433;28;20034;-65
2020/12/27 11:06:12;;;;;;;0.20;0.20;;;;;;;4.32;100.00;98108.31;4949835;28;20031;-64
2020/12/27 11:08:37;;;;;;;0.20;0.20;;;;;;;4.34;100.00;98093.81;4949992;28;20165;-65
2020/12/27 11:11:03;;;;;;;1.52;0.70;;;;;;;4.39;100.00;98093.25;4950626;28;20035;-65
2020/12/27 11:13:29;;;;;;;2.78;0.57;;;;;;;4.35;100.00;98098.13;4950879;28;20529;-65
2020/12/27 11:15:54;;;;;;;2.20;1.10;;;;;;;4.38;100.00;98095.09;4949886;28;20038;-65
2020/12/27 11:18:20;;;;;;;0.68;0.30;;;;;;;4.38;100.00;98078.34;4949681;28;20163;-65
2020/12/27 11:20:45;;;;;;;0.77;0.32;;;;;;;4.31;100.00;98056.22;4949682;28;20369;-65
2020/12/27 11:23:11;;;;;;;0.57;0.30;;;;;;;4.40;100.00;98066.50;4950600;28;20534;-65
2020/12/27 11:25:36;;;;;;;1.63;0.30;;;;;;;4.38;100.00;98036.69;4949919;28;20039;-65
2020/12/27 11:28:02;;;;;;;0.60;0.38;;;;;;;4.39;100.00;98040.16;4964574;28;20385;-66
2020/12/27 11:30:28;;;;;;;0.50;0.30;;;;;;;4.31;100.00;98011.91;4949744;28;20149;-67
2020/12/27 11:32:53;;;;;;;0.65;0.22;;;;;;;4.40;100.00;98028.53;4950409;28;20034;-65